Louisa, VA

3:27 AM EST on March 01, 2015 (GMT -0500)
Louisa - Northside | Change Station
CLOSE
Current Station
Personal Weather Station
Location: Louisa, VA
Elevation: 371 ft
Nearby Weather Stations
Active Advisory: Winter Weather Advisory

Elev 371 ft 38.04 °N, 78.01 °W | Updated 8 seconds ago

Partly Cloudy
Partly Cloudy
21.7 °F
Feels Like 22 °F
N
0.0
Wind Variable Wind from ESE
Gusts 4.0 mph

Today
High -- | Low -- °F
--% Chance of Precip.
Yesterday
High -- | Low -- °F
Precip. -- in
6:44 AM 6:05 PM
Waxing Gibbous, 83% visible
Pressure 30.63 in
Visibility 10.0 miles
Clouds Scattered Clouds 12000 ft
Windchill 22 °F
Dew Point 16 °F
Humidity 78%
Rainfall 0.00 in
Snow Depth Not available.
UV 0 out of 12
Pollen 3.40 out of 12
Air Quality Not available.
Flu Activity Not available.
METAR KLKU 010815Z AUTO 00000KT 10SM SCT120 M06/M08 A3063 RMK AO2

More Conditions Fewer Conditions

Pressure 30.63 in
Visibility 10.0 miles
Clouds Scattered Clouds 12000 ft
Windchill 22 °F
Dew Point 16 °F
Humidity 78%
Rainfall 0.00 in
Snow Depth Not available.
UV 0 out of 12
Pollen 3.40 out of 12
Air Quality Not available.
Flu Activity Not available.
METAR KLKU 010815Z AUTO 00000KT 10SM SCT120 M06/M08 A3063 RMK AO2

More Conditions Fewer Conditions

10-Day Weather Forecast

Almanac

Astronomy

Mar. 01, 2015 Rise Set
Actual Time
Civil Twilight
Nautical Twilight
Astronomical Twilight
Moon
Length of Visible Light
Length of Day
Tomorrow will be .
, % of the Moon is Illuminated

Today's Extremes

State Highs State Lows

Community

WunderPhotos

Upload Photos

1,801,350 photos uploaded!

WunderBlogs® & News

Nearby

Air Quality

  Air Quality AQ Index Pollutant
Not available.

Snow Depth

Station Depth Elevation

Earthquake Activity

City Distance Mag. Time & Date
Minimum magnitude displayed is 2.5.

Coastal Water Temperatures

Place Temperature

Nearby Weather Stations

Winter Weather Advisory
Statement as of 3:08 AM EST on March 01, 2015

... Winter Weather Advisory remains in effect until 7 PM EST this
evening...

A Winter Weather Advisory remains in effect until 7 PM EST this
evening.

* Areas affected: Piedmont in central Virginia.

* Hazards: snow... sleet and freezing rain.

* Accumulations: snow accumulation one half inch or less. Ice
accumulation between one to two tenths of an inch.

* Temperatures: 20 to 25 early this morning... rising into the
lower 30s by this evening.

* Timing: light snow and sleet becoming sleet and freezing rain
this morning... gradually transitioning to all rain this evening.

* Impacts: hazardous travel due to ice covered roads... bridges and
overpasses. Sporadic power outages and downed tree branches are
possible due to the ice.

Precautionary/preparedness actions...

A Winter Weather Advisory means that periods of snow... sleet... or
freezing rain will cause travel difficulties. Be prepared for
slippery roads and limited visibilities... and use caution while
driving.